createdAt,value
2023-04-08T00:00:22.596Z,25.57
2023-04-08T00:02:22.843Z,25.53
2023-04-08T00:04:22.706Z,25.54
2023-04-08T00:06:22.645Z,25.52
2023-04-08T00:08:22.681Z,25.61
2023-04-08T00:10:22.627Z,25.54
2023-04-08T00:12:22.645Z,25.54
2023-04-08T00:14:22.696Z,25.53
2023-04-08T00:16:22.622Z,25.52
2023-04-08T00:18:22.632Z,25.52
2023-04-08T00:20:22.638Z,25.52
2023-04-08T00:22:22.578Z,25.52
2023-04-08T00:24:22.699Z,25.53
2023-04-08T00:26:22.599Z,25.49
2023-04-08T00:28:22.720Z,25.64
2023-04-08T00:30:22.606Z,25.52
2023-04-08T00:32:22.711Z,25.56
2023-04-08T00:34:22.701Z,25.52
2023-04-08T00:36:22.697Z,25.52
2023-04-08T00:38:22.594Z,25.52
2023-04-08T00:40:22.630Z,25.49
2023-04-08T00:42:22.689Z,25.44
2023-04-08T00:44:22.687Z,25.47
2023-04-08T00:46:22.776Z,25.44
2023-04-08T00:48:22.656Z,25.44
2023-04-08T00:50:22.681Z,25.43
2023-04-08T00:52:22.728Z,25.45
2023-04-08T00:54:22.799Z,25.38
2023-04-08T00:56:22.723Z,25.45
2023-04-08T00:58:22.609Z,25.50
2023-04-08T01:00:22.709Z,25.52
2023-04-08T01:02:23.019Z,25.44
2023-04-08T01:04:22.855Z,25.47
2023-04-08T01:06:22.669Z,25.37
2023-04-08T01:08:22.693Z,25.47
2023-04-08T01:10:22.695Z,25.47
2023-04-08T01:12:22.734Z,25.45
2023-04-08T01:14:22.669Z,25.51
2023-04-08T01:16:22.879Z,25.46
2023-04-08T01:18:22.727Z,25.42
2023-04-08T01:20:22.747Z,25.42
2023-04-08T01:22:22.664Z,25.44
2023-04-08T01:24:22.681Z,25.46
2023-04-08T01:26:22.573Z,25.42
2023-04-08T01:28:22.683Z,25.40
2023-04-08T01:30:22.671Z,25.45
2023-04-08T01:32:22.726Z,25.40
2023-04-08T01:34:22.685Z,25.52
2023-04-08T01:36:22.717Z,25.51
2023-04-08T01:38:22.718Z,25.42
2023-04-08T01:40:22.814Z,25.40
2023-04-08T01:42:22.771Z,25.40
2023-04-08T01:44:22.786Z,25.45
2023-04-08T01:46:22.810Z,25.49
2023-04-08T01:48:22.772Z,25.49
2023-04-08T01:50:22.760Z,25.44
2023-04-08T01:52:22.736Z,25.37
2023-04-08T01:54:22.782Z,25.46
2023-04-08T01:56:22.714Z,25.51
2023-04-08T01:58:22.776Z,25.49
2023-04-08T02:00:22.707Z,24.60
2023-04-08T02:02:22.940Z,24.34
2023-04-08T02:04:22.891Z,24.10
2023-04-08T02:06:22.757Z,23.95
2023-04-08T02:08:22.776Z,23.79
2023-04-08T02:10:22.749Z,23.67
2023-04-08T02:12:22.712Z,23.68
2023-04-08T02:14:22.787Z,23.62
2023-04-08T02:16:22.847Z,23.55
2023-04-08T02:18:22.805Z,23.57
2023-04-08T02:20:22.679Z,23.52
2023-04-08T02:22:22.713Z,23.54
2023-04-08T02:24:22.743Z,23.53
2023-04-08T02:26:22.759Z,23.50
2023-04-08T02:28:22.761Z,23.53
2023-04-08T02:30:22.790Z,23.49
2023-04-08T02:32:22.782Z,23.55
2023-04-08T02:34:22.861Z,23.43
2023-04-08T02:36:22.765Z,23.48
2023-04-08T02:38:22.774Z,23.47
2023-04-08T02:40:22.766Z,23.49
2023-04-08T02:42:22.728Z,23.51
2023-04-08T02:44:22.726Z,23.47
2023-04-08T02:46:23.113Z,23.44
2023-04-08T02:48:22.815Z,23.41
2023-04-08T02:50:22.766Z,23.51
2023-04-08T02:52:22.823Z,23.41
2023-04-08T02:54:22.829Z,23.42
2023-04-08T02:56:22.814Z,23.38
2023-04-08T02:58:22.836Z,23.45
2023-04-08T03:00:22.924Z,23.39
2023-04-08T03:02:22.914Z,23.42
2023-04-08T03:04:22.779Z,23.44
2023-04-08T03:06:22.877Z,23.45
2023-04-08T03:08:22.894Z,23.44
2023-04-08T03:10:22.876Z,23.44
2023-04-08T03:12:22.817Z,23.43
2023-04-08T03:14:22.865Z,23.41
2023-04-08T03:16:22.892Z,23.39
2023-04-08T03:18:22.861Z,23.42
2023-04-08T03:20:22.861Z,23.43
2023-04-08T03:22:22.737Z,23.39
2023-04-08T03:24:22.724Z,23.39
2023-04-08T03:26:22.759Z,23.39
2023-04-08T03:28:22.859Z,23.34
2023-04-08T03:30:22.844Z,23.34
2023-04-08T03:32:22.871Z,23.29
2023-04-08T03:34:22.804Z,23.29
2023-04-08T03:36:22.892Z,23.30
2023-04-08T03:38:22.828Z,23.31
2023-04-08T03:40:22.862Z,23.24
2023-04-08T03:42:22.789Z,23.27
2023-04-08T03:44:22.838Z,23.27
2023-04-08T03:46:22.935Z,23.26
2023-04-08T03:48:22.781Z,23.35
2023-04-08T03:50:22.909Z,23.26
2023-04-08T03:52:22.766Z,23.25
2023-04-08T03:54:22.854Z,23.31
2023-04-08T03:56:22.825Z,23.23
2023-04-08T03:58:22.863Z,23.25
2023-04-08T04:00:22.821Z,23.00
2023-04-08T04:02:23.009Z,23.09
2023-04-08T04:04:23.080Z,23.05
2023-04-08T04:06:22.845Z,22.98
2023-04-08T04:08:22.865Z,23.04
2023-04-08T04:10:22.872Z,23.03
2023-04-08T04:12:22.915Z,23.03
2023-04-08T04:14:22.890Z,23.01
2023-04-08T04:16:22.912Z,23.07
2023-04-08T04:18:22.976Z,22.99
2023-04-08T04:20:22.868Z,23.01
2023-04-08T04:22:22.913Z,22.98
2023-04-08T04:24:22.847Z,23.01
2023-04-08T04:26:22.889Z,22.95
2023-04-08T04:28:22.919Z,23.01
2023-04-08T04:30:23.017Z,23.13
2023-04-08T04:32:23.001Z,23.25
2023-04-08T04:34:22.888Z,23.24
2023-04-08T04:36:22.977Z,23.11
2023-04-08T04:38:22.960Z,23.22
2023-04-08T04:40:22.928Z,23.20
2023-04-08T04:42:22.922Z,23.14
2023-04-08T04:44:22.921Z,23.21
2023-04-08T04:46:22.907Z,23.19
2023-04-08T04:48:22.927Z,23.23
2023-04-08T04:50:22.872Z,23.22
2023-04-08T04:52:22.845Z,23.18
2023-04-08T04:54:22.937Z,23.19
2023-04-08T04:56:22.885Z,23.13
2023-04-08T04:58:22.908Z,23.19
2023-04-08T05:00:22.953Z,23.10
2023-04-08T05:02:23.194Z,23.16
2023-04-08T05:04:22.922Z,23.13
2023-04-08T05:06:22.929Z,23.16
2023-04-08T05:08:22.886Z,23.11
2023-04-08T05:10:22.979Z,23.13
2023-04-08T05:12:23.001Z,23.13
2023-04-08T05:14:22.901Z,23.15
2023-04-08T05:16:22.978Z,23.12
2023-04-08T05:18:22.911Z,23.24
2023-04-08T05:20:22.863Z,23.38
2023-04-08T05:22:22.974Z,23.25
2023-04-08T05:24:22.913Z,23.24
2023-04-08T05:26:22.982Z,23.20
2023-04-08T05:28:22.863Z,23.12
2023-04-08T05:30:22.967Z,23.20
2023-04-08T05:32:22.992Z,23.26
2023-04-08T05:34:23.298Z,23.25
2023-04-08T05:36:22.991Z,23.26
2023-04-08T05:38:22.972Z,23.24
2023-04-08T05:40:22.883Z,23.25
2023-04-08T05:42:22.886Z,23.29
2023-04-08T05:44:22.983Z,23.33
2023-04-08T05:46:23.089Z,23.37
2023-04-08T05:48:23.004Z,23.37
2023-04-08T05:50:22.950Z,23.36
2023-04-08T05:52:23.004Z,23.35
2023-04-08T05:54:22.926Z,23.36
2023-04-08T05:56:22.977Z,23.44
2023-04-08T05:58:22.997Z,23.44
2023-04-08T06:00:22.934Z,23.47
2023-04-08T06:02:23.153Z,23.52
2023-04-08T06:04:23.086Z,23.56
2023-04-08T06:06:23.042Z,23.39
2023-04-08T06:08:22.962Z,23.38
2023-04-08T06:10:22.959Z,23.40
2023-04-08T06:12:22.991Z,23.34
2023-04-08T06:14:22.987Z,23.29
2023-04-08T06:16:23.081Z,23.49
2023-04-08T06:18:23.013Z,23.53
2023-04-08T06:20:22.946Z,23.68
2023-04-08T06:22:23.038Z,23.68
2023-04-08T06:24:23.069Z,23.81
2023-04-08T06:26:22.984Z,23.91
2023-04-08T06:28:22.953Z,23.97
2023-04-08T06:30:23.015Z,23.96
2023-04-08T06:32:23.077Z,24.24
2023-04-08T06:34:23.032Z,24.27
2023-04-08T06:36:23.067Z,24.36
2023-04-08T06:38:23.299Z,24.34
2023-04-08T06:40:23.051Z,24.38
2023-04-08T06:42:23.265Z,24.44
2023-04-08T06:44:22.980Z,24.50
2023-04-08T06:46:23.019Z,24.40
2023-04-08T06:48:23.036Z,24.58
2023-04-08T06:50:23.090Z,24.47
2023-04-08T06:52:22.954Z,24.52
2023-04-08T06:54:23.075Z,24.51
2023-04-08T06:56:23.005Z,24.52
2023-04-08T06:58:23.019Z,24.51
2023-04-08T07:00:23.096Z,24.60
2023-04-08T07:02:23.089Z,24.64
2023-04-08T07:04:23.274Z,24.68
2023-04-08T07:06:23.029Z,24.78
2023-04-08T07:08:23.083Z,24.78
2023-04-08T07:10:23.019Z,24.51
2023-04-08T07:12:23.089Z,24.90
2023-04-08T07:14:23.047Z,24.95
2023-04-08T07:16:23.170Z,24.95
2023-04-08T07:18:23.078Z,24.95
2023-04-08T07:20:23.090Z,24.99
2023-04-08T07:22:23.044Z,25.10
2023-04-08T07:24:23.001Z,25.09
2023-04-08T07:26:23.024Z,25.12
2023-04-08T07:28:22.999Z,25.01
2023-04-08T07:30:23.084Z,25.13
2023-04-08T07:32:23.168Z,25.46
2023-04-08T07:34:23.059Z,25.51
2023-04-08T07:36:23.120Z,25.53
2023-04-08T07:38:23.060Z,25.52
2023-04-08T07:40:23.142Z,25.52
2023-04-08T07:42:23.149Z,25.36
2023-04-08T07:44:23.025Z,25.21
2023-04-08T07:46:23.147Z,25.33
2023-04-08T07:48:23.073Z,25.35
2023-04-08T07:50:23.107Z,25.47
2023-04-08T07:52:23.045Z,25.57
2023-04-08T07:54:23.119Z,25.58
2023-04-08T07:56:23.004Z,25.63
2023-04-08T07:58:23.050Z,25.75
2023-04-08T08:00:23.137Z,25.81
2023-04-08T08:02:23.346Z,25.80
2023-04-08T08:04:23.254Z,26.04
2023-04-08T08:06:23.118Z,26.35
2023-04-08T08:08:23.189Z,26.22
2023-04-08T08:10:23.143Z,26.93
2023-04-08T08:12:23.112Z,25.22
2023-04-08T08:14:23.127Z,25.23
2023-04-08T08:16:23.167Z,25.21
2023-04-08T08:18:23.132Z,26.93
2023-04-08T08:20:23.126Z,25.09
2023-04-08T08:22:23.152Z,26.57
2023-04-08T08:24:23.119Z,26.14
2023-04-08T08:26:23.097Z,25.81
2023-04-08T08:28:23.150Z,24.98
2023-04-08T08:30:23.196Z,25.03
2023-04-08T08:32:23.103Z,26.29
2023-04-08T08:34:23.112Z,25.09
2023-04-08T08:36:23.221Z,25.04
2023-04-08T08:38:23.101Z,25.04
2023-04-08T08:40:23.166Z,24.97
2023-04-08T08:42:23.200Z,25.00
2023-04-08T08:44:23.177Z,25.91
2023-04-08T08:46:23.153Z,25.06
2023-04-08T08:48:23.216Z,25.01
2023-04-08T08:50:23.113Z,25.09
2023-04-08T08:52:23.186Z,25.05
2023-04-08T08:54:23.182Z,25.13
2023-04-08T08:56:23.129Z,26.08
2023-04-08T08:58:23.204Z,26.23
2023-04-08T09:00:23.086Z,25.89
2023-04-08T09:02:23.150Z,26.29
2023-04-08T09:04:23.424Z,25.01
2023-04-08T09:06:23.185Z,24.99
2023-04-08T09:08:23.209Z,25.00
2023-04-08T09:10:23.199Z,26.63
2023-04-08T09:12:23.212Z,25.09
2023-04-08T09:14:23.169Z,25.23
2023-04-08T09:16:23.269Z,25.10
2023-04-08T09:18:23.148Z,25.89
2023-04-08T09:20:23.252Z,25.03
2023-04-08T09:22:23.217Z,25.22
2023-04-08T09:24:23.204Z,25.08
2023-04-08T09:26:23.189Z,25.40
2023-04-08T09:28:23.143Z,25.58
2023-04-08T09:30:23.212Z,25.77
2023-04-08T09:32:23.233Z,25.07
2023-04-08T09:34:23.214Z,25.10
2023-04-08T09:36:23.255Z,25.15
2023-04-08T09:38:23.217Z,25.18
2023-04-08T09:40:23.253Z,25.18
2023-04-08T09:42:23.254Z,25.12
2023-04-08T09:44:23.289Z,25.19
2023-04-08T09:46:23.290Z,25.12
2023-04-08T09:48:23.202Z,25.13
2023-04-08T09:50:23.225Z,25.12
2023-04-08T09:52:23.228Z,25.11
2023-04-08T09:54:23.165Z,25.12
2023-04-08T09:56:23.250Z,25.21
2023-04-08T09:58:23.248Z,25.12
2023-04-08T10:00:23.264Z,25.19
2023-04-08T10:02:23.321Z,25.13
2023-04-08T10:04:23.361Z,25.21
2023-04-08T10:06:23.173Z,25.29
2023-04-08T10:08:23.244Z,25.29
2023-04-08T10:10:23.240Z,25.21
2023-04-08T10:12:23.278Z,24.66
2023-04-08T10:14:23.175Z,24.66
2023-04-08T10:16:23.192Z,24.76
2023-04-08T10:18:23.257Z,25.52
2023-04-08T10:20:23.295Z,25.80
2023-04-08T10:22:23.262Z,25.88
2023-04-08T10:24:23.273Z,25.84
2023-04-08T10:26:23.343Z,26.18
2023-04-08T10:28:23.280Z,25.29
2023-04-08T10:30:23.275Z,25.19
2023-04-08T10:32:23.253Z,25.33
2023-04-08T10:34:23.284Z,25.20
2023-04-08T10:36:23.350Z,25.21
2023-04-08T10:38:23.142Z,25.17
2023-04-08T10:40:23.332Z,25.19
2023-04-08T10:42:23.357Z,25.23
2023-04-08T10:44:23.329Z,25.14
2023-04-08T10:46:23.229Z,25.21
2023-04-08T10:48:23.231Z,25.26
2023-04-08T10:50:23.213Z,25.19
2023-04-08T10:52:23.221Z,25.18
2023-04-08T10:54:23.256Z,26.34
2023-04-08T10:56:23.294Z,25.21
2023-04-08T10:58:23.278Z,25.17
2023-04-08T11:00:23.302Z,25.57
2023-04-08T11:02:23.462Z,25.52
2023-04-08T11:04:23.572Z,25.50
2023-04-08T11:06:23.252Z,25.52
2023-04-08T11:08:23.540Z,25.61
2023-04-08T11:10:23.285Z,25.53
2023-04-08T11:12:23.320Z,25.52
2023-04-08T11:14:23.243Z,25.46
2023-04-08T11:16:23.609Z,25.56
2023-04-08T11:18:23.359Z,25.56
2023-04-08T11:20:23.279Z,25.47
2023-04-08T11:22:23.316Z,25.49
2023-04-08T11:24:23.250Z,25.52
2023-04-08T11:26:23.353Z,25.37
2023-04-08T11:28:23.264Z,27.12
2023-04-08T11:30:23.301Z,25.72
2023-04-08T11:32:23.341Z,26.43
2023-04-08T11:34:23.227Z,25.18
2023-04-08T11:36:23.395Z,25.09
2023-04-08T11:38:23.408Z,25.20
2023-04-08T11:40:23.369Z,25.23
2023-04-08T11:42:23.365Z,25.26
2023-04-08T11:44:23.443Z,25.23
2023-04-08T11:46:23.624Z,25.24
2023-04-08T11:48:23.318Z,25.53
2023-04-08T11:50:23.353Z,25.61
2023-04-08T11:52:23.223Z,25.55
2023-04-08T11:54:23.350Z,25.55
2023-04-08T11:56:23.341Z,27.05
2023-04-08T11:58:23.388Z,25.14
2023-04-08T12:00:23.415Z,25.24
2023-04-08T12:02:23.384Z,27.07
2023-04-08T12:04:23.508Z,26.48
2023-04-08T12:06:23.343Z,25.13
2023-04-08T12:08:23.305Z,25.15
2023-04-08T12:10:23.373Z,25.09
2023-04-08T12:12:23.401Z,25.24
2023-04-08T12:14:23.420Z,25.43
2023-04-08T12:16:23.352Z,25.09
2023-04-08T12:18:23.385Z,25.13
2023-04-08T12:20:23.385Z,26.00
2023-04-08T12:22:23.390Z,27.08
2023-04-08T12:24:23.344Z,26.65
2023-04-08T12:26:23.365Z,25.24
2023-04-08T12:28:23.366Z,25.14
2023-04-08T12:30:23.437Z,25.51
2023-04-08T12:32:23.494Z,25.31
2023-04-08T12:34:23.403Z,25.40
2023-04-08T12:36:23.474Z,25.31
2023-04-08T12:38:23.433Z,25.13
2023-04-08T12:40:23.340Z,25.32
2023-04-08T12:42:23.474Z,25.29
2023-04-08T12:44:23.418Z,25.38
2023-04-08T12:46:23.485Z,25.29
2023-04-08T12:48:23.293Z,25.37
2023-04-08T12:50:23.434Z,26.29
2023-04-08T12:52:23.341Z,26.32
2023-04-08T12:54:23.423Z,25.33
2023-04-08T12:56:23.412Z,25.09
2023-04-08T12:58:23.406Z,25.23
2023-04-08T13:00:23.379Z,25.19
2023-04-08T13:02:23.514Z,25.21
2023-04-08T13:04:23.446Z,25.23
2023-04-08T13:06:23.477Z,25.32
2023-04-08T13:08:23.403Z,25.24
2023-04-08T13:10:23.485Z,25.23
2023-04-08T13:12:23.415Z,25.27
2023-04-08T13:14:23.423Z,25.19
2023-04-08T13:16:23.529Z,25.23
2023-04-08T13:18:23.352Z,25.26
2023-04-08T13:20:23.462Z,25.21
2023-04-08T13:22:23.432Z,25.22
2023-04-08T13:24:23.365Z,25.20
2023-04-08T13:26:23.525Z,25.28
2023-04-08T13:28:23.468Z,25.28
2023-04-08T13:30:24.632Z,25.35
2023-04-08T13:32:23.459Z,25.29
2023-04-08T13:34:23.404Z,25.17
2023-04-08T13:36:23.423Z,25.21
2023-04-08T13:38:23.538Z,25.18
2023-04-08T13:40:23.510Z,25.14
2023-04-08T13:42:23.520Z,25.10
2023-04-08T13:44:23.487Z,25.23
2023-04-08T13:46:23.648Z,25.25
2023-04-08T13:48:23.473Z,25.21
2023-04-08T13:50:23.449Z,25.14
2023-04-08T13:52:23.516Z,25.21
2023-04-08T13:54:23.504Z,25.12
2023-04-08T13:56:23.512Z,24.98
2023-04-08T13:58:24.425Z,24.95
2023-04-08T14:00:23.380Z,24.97
2023-04-08T14:02:23.647Z,24.95
2023-04-08T14:04:23.521Z,25.33
2023-04-08T14:06:23.537Z,25.53
2023-04-08T14:08:23.461Z,25.52
2023-04-08T14:10:23.525Z,25.38
2023-04-08T14:12:23.504Z,25.46
2023-04-08T14:14:23.336Z,25.49
2023-04-08T14:16:23.527Z,25.52
2023-04-08T14:18:23.513Z,25.53
2023-04-08T14:20:23.509Z,25.52
2023-04-08T14:22:23.436Z,25.46
2023-04-08T14:24:23.480Z,25.46
2023-04-08T14:26:23.460Z,25.44
2023-04-08T14:28:23.515Z,25.37
2023-04-08T14:30:23.530Z,25.35
2023-04-08T14:32:23.516Z,25.26
2023-04-08T14:34:23.452Z,25.39
2023-04-08T14:36:23.508Z,25.36
2023-04-08T14:38:23.475Z,25.31
2023-04-08T14:40:23.497Z,24.95
2023-04-08T14:42:23.547Z,24.86
2023-04-08T14:44:23.536Z,24.66
2023-04-08T14:46:24.459Z,24.66
2023-04-08T14:48:23.528Z,24.90
2023-04-08T14:50:23.471Z,25.21
2023-04-08T14:52:23.557Z,25.38
2023-04-08T14:54:23.529Z,25.39
2023-04-08T14:56:23.514Z,25.22
2023-04-08T14:58:23.473Z,25.26
2023-04-08T15:00:23.526Z,25.23
2023-04-08T15:02:23.575Z,25.23
2023-04-08T15:04:23.486Z,24.82
2023-04-08T15:06:23.584Z,25.21
2023-04-08T15:08:23.625Z,25.43
2023-04-08T15:10:23.557Z,24.82
2023-04-08T15:12:23.627Z,25.44
2023-04-08T15:14:23.617Z,25.52
2023-04-08T15:16:23.656Z,25.25
2023-04-08T15:18:23.606Z,25.22
2023-04-08T15:20:23.574Z,24.72
2023-04-08T15:22:23.555Z,24.52
2023-04-08T15:24:23.548Z,24.21
2023-04-08T15:26:23.626Z,25.75
2023-04-08T15:28:23.652Z,25.29
2023-04-08T15:30:23.542Z,25.35
2023-04-08T15:32:23.703Z,25.45
2023-04-08T15:34:23.582Z,25.37
2023-04-08T15:36:23.536Z,25.25
2023-04-08T15:38:23.663Z,25.46
2023-04-08T15:40:23.635Z,25.17
2023-04-08T15:42:23.636Z,25.43
2023-04-08T15:44:23.647Z,25.14
2023-04-08T15:46:23.579Z,25.29
2023-04-08T15:48:23.629Z,25.21
2023-04-08T15:50:23.588Z,25.20
2023-04-08T15:52:23.852Z,25.14
2023-04-08T15:54:23.652Z,25.20
2023-04-08T15:56:23.742Z,25.10
2023-04-08T15:58:23.578Z,25.23
2023-04-08T16:00:23.669Z,25.21
2023-04-08T16:02:23.850Z,25.10
2023-04-08T16:04:23.732Z,25.19
2023-04-08T16:06:23.682Z,25.24
2023-04-08T16:08:23.638Z,25.18
2023-04-08T16:10:23.766Z,25.10
2023-04-08T16:12:23.733Z,24.90
2023-04-08T16:14:23.581Z,24.83
2023-04-08T16:16:23.644Z,24.57
2023-04-08T16:18:23.618Z,24.53
2023-04-08T16:20:23.527Z,24.39
2023-04-08T16:22:23.687Z,24.41
2023-04-08T16:24:23.610Z,24.22
2023-04-08T16:26:23.648Z,24.18
2023-04-08T16:28:23.649Z,24.15
2023-04-08T16:30:23.615Z,24.10
2023-04-08T16:32:23.723Z,24.10
2023-04-08T16:34:23.715Z,24.09
2023-04-08T16:36:23.656Z,23.98
2023-04-08T16:38:23.692Z,24.01
2023-04-08T16:40:23.688Z,23.91
2023-04-08T16:42:23.844Z,23.91
2023-04-08T16:44:23.685Z,23.91
2023-04-08T16:46:23.644Z,23.95
2023-04-08T16:48:23.690Z,23.82
2023-04-08T16:50:23.700Z,23.76
2023-04-08T16:52:23.634Z,23.75
2023-04-08T16:54:23.669Z,23.81
2023-04-08T16:56:23.661Z,23.65
2023-04-08T16:58:23.686Z,23.66
2023-04-08T17:00:23.692Z,23.72
2023-04-08T17:02:23.850Z,23.70
2023-04-08T17:04:23.817Z,23.72
2023-04-08T17:06:23.663Z,23.59
2023-04-08T17:08:23.747Z,23.57
2023-04-08T17:10:23.520Z,23.63
2023-04-08T17:12:23.690Z,23.51
2023-04-08T17:14:23.762Z,23.67
2023-04-08T17:16:23.749Z,23.63
2023-04-08T17:18:23.749Z,23.59
2023-04-08T17:20:23.653Z,23.61
2023-04-08T17:22:23.704Z,23.63
2023-04-08T17:24:23.754Z,23.53
2023-04-08T17:26:23.746Z,23.53
2023-04-08T17:28:23.722Z,23.56
2023-04-08T17:30:23.772Z,23.65
2023-04-08T17:32:23.728Z,23.57
2023-04-08T17:34:23.770Z,23.53
2023-04-08T17:36:23.902Z,23.56
2023-04-08T17:38:23.885Z,23.56
2023-04-08T17:40:23.748Z,23.55
2023-04-08T17:42:23.807Z,23.53
2023-04-08T17:44:23.749Z,23.53
2023-04-08T17:46:23.760Z,23.58
2023-04-08T17:48:23.783Z,23.54
2023-04-08T17:50:23.764Z,23.57
2023-04-08T17:52:23.768Z,23.53
2023-04-08T17:54:23.733Z,23.54
2023-04-08T17:56:23.755Z,23.59
2023-04-08T17:58:23.744Z,23.50
2023-04-08T18:00:23.732Z,23.53
2023-04-08T18:02:23.830Z,23.63
2023-04-08T18:04:23.862Z,23.70
2023-04-08T18:06:23.682Z,23.72
2023-04-08T18:08:23.744Z,23.70
2023-04-08T18:10:23.784Z,23.48
2023-04-08T18:12:23.820Z,23.78
2023-04-08T18:14:23.779Z,23.67
2023-04-08T18:16:23.809Z,23.34
2023-04-08T18:18:23.756Z,23.69
2023-04-08T18:20:23.677Z,23.72
2023-04-08T18:22:23.788Z,23.72
2023-04-08T18:24:23.707Z,23.75
2023-04-08T18:26:23.815Z,26.71
2023-04-08T18:28:23.696Z,27.07
2023-04-08T18:30:23.798Z,27.08
2023-04-08T18:32:23.785Z,27.08
2023-04-08T18:34:23.829Z,27.10
2023-04-08T18:36:23.801Z,25.78
2023-04-08T18:38:23.795Z,25.40
2023-04-08T18:40:23.689Z,25.48
2023-04-08T18:42:23.780Z,25.47
2023-04-08T18:44:23.752Z,25.44
2023-04-08T18:46:23.783Z,25.46
2023-04-08T18:48:23.737Z,25.51
2023-04-08T18:50:23.710Z,25.52
2023-04-08T18:52:23.812Z,25.47
2023-04-08T18:54:23.822Z,25.52
2023-04-08T18:56:23.884Z,25.46
2023-04-08T18:58:23.846Z,25.50
2023-04-08T19:00:23.879Z,25.49
2023-04-08T19:02:23.967Z,25.52
2023-04-08T19:04:23.782Z,25.50
2023-04-08T19:06:23.694Z,25.45
2023-04-08T19:08:23.868Z,25.46
2023-04-08T19:10:23.895Z,25.45
2023-04-08T19:12:23.734Z,25.46
2023-04-08T19:14:23.825Z,25.43
2023-04-08T19:16:23.892Z,25.49
2023-04-08T19:18:23.817Z,25.50
2023-04-08T19:20:23.791Z,25.47
2023-04-08T19:22:23.832Z,25.48
2023-04-08T19:24:23.856Z,25.47
2023-04-08T19:26:23.874Z,25.46
2023-04-08T19:28:23.849Z,25.49
2023-04-08T19:30:23.835Z,25.42
2023-04-08T19:32:23.909Z,25.50
2023-04-08T19:34:23.863Z,25.53
2023-04-08T19:36:23.811Z,25.47
2023-04-08T19:38:23.903Z,25.49
2023-04-08T19:40:23.866Z,25.51
2023-04-08T19:42:23.822Z,25.51
2023-04-08T19:44:23.890Z,25.47
2023-04-08T19:46:23.906Z,25.51
2023-04-08T19:48:23.781Z,25.52
2023-04-08T19:50:23.846Z,25.52
2023-04-08T19:52:23.892Z,25.51
2023-04-08T19:54:23.830Z,25.53
2023-04-08T19:56:23.805Z,25.52
2023-04-08T19:58:23.709Z,25.50
2023-04-08T20:00:23.901Z,25.52
2023-04-08T20:02:24.034Z,25.57
2023-04-08T20:04:24.049Z,25.47
2023-04-08T20:06:23.903Z,25.46
2023-04-08T20:08:23.830Z,25.52
2023-04-08T20:10:23.875Z,25.50
2023-04-08T20:12:23.889Z,25.52
2023-04-08T20:14:23.862Z,25.45
2023-04-08T20:16:23.890Z,25.49
2023-04-08T20:18:23.904Z,25.47
2023-04-08T20:20:23.811Z,25.52
2023-04-08T20:22:23.827Z,25.46
2023-04-08T20:24:23.842Z,25.51
2023-04-08T20:26:23.911Z,25.50
2023-04-08T20:28:23.853Z,25.52
2023-04-08T20:30:23.848Z,25.51
2023-04-08T20:32:23.875Z,25.47
2023-04-08T20:34:23.801Z,25.50
2023-04-08T20:36:23.899Z,25.49
2023-04-08T20:38:23.882Z,25.49
2023-04-08T20:40:23.879Z,25.51
2023-04-08T20:42:23.952Z,25.52
2023-04-08T20:44:23.904Z,25.49
2023-04-08T20:46:23.910Z,25.51
2023-04-08T20:48:23.877Z,25.51
2023-04-08T20:50:24.002Z,25.57
2023-04-08T20:52:23.942Z,25.51
2023-04-08T20:54:23.935Z,25.50
2023-04-08T20:56:23.945Z,25.15
2023-04-08T20:58:23.948Z,25.23
2023-04-08T21:00:23.840Z,25.50
2023-04-08T21:02:24.218Z,25.52
2023-04-08T21:04:23.940Z,25.57
2023-04-08T21:06:23.930Z,25.52
2023-04-08T21:08:24.009Z,25.61
2023-04-08T21:10:23.981Z,25.54
2023-04-08T21:12:23.943Z,25.53
2023-04-08T21:14:23.986Z,25.55
2023-04-08T21:16:24.050Z,25.54
2023-04-08T21:18:23.958Z,25.47
2023-04-08T21:20:23.916Z,25.56
2023-04-08T21:22:23.957Z,25.50
2023-04-08T21:24:23.861Z,25.54
2023-04-08T21:26:23.964Z,25.61
2023-04-08T21:28:24.008Z,25.52
2023-04-08T21:30:23.942Z,25.52
2023-04-08T21:32:24.094Z,25.52
2023-04-08T21:34:24.006Z,25.54
2023-04-08T21:36:23.987Z,25.61
2023-04-08T21:38:23.907Z,25.56
2023-04-08T21:40:23.967Z,25.52
2023-04-08T21:42:23.967Z,25.52
2023-04-08T21:44:23.988Z,25.50
2023-04-08T21:46:23.957Z,25.52
2023-04-08T21:48:23.986Z,25.49
2023-04-08T21:50:23.876Z,25.46
2023-04-08T21:52:25.083Z,25.50
2023-04-08T21:54:24.018Z,25.44
2023-04-08T21:56:23.951Z,25.44
2023-04-08T21:58:24.007Z,25.47
2023-04-08T22:00:24.098Z,25.43
2023-04-08T22:02:24.201Z,25.45
2023-04-08T22:04:23.983Z,25.47
2023-04-08T22:06:32.044Z,25.42
2023-04-08T22:08:24.080Z,25.39
2023-04-08T22:10:24.069Z,25.37
2023-04-08T22:12:23.977Z,25.43
2023-04-08T22:14:24.029Z,25.47
2023-04-08T22:16:24.027Z,25.44
2023-04-08T22:18:23.998Z,25.52
2023-04-08T22:20:23.991Z,25.51
2023-04-08T22:22:24.026Z,25.42
2023-04-08T22:24:23.979Z,25.43
2023-04-08T22:26:24.041Z,25.50
2023-04-08T22:28:24.035Z,25.45
2023-04-08T22:30:23.957Z,25.44
2023-04-08T22:32:24.184Z,25.50
2023-04-08T22:34:24.026Z,25.47
2023-04-08T22:36:23.999Z,25.44
2023-04-08T22:38:24.053Z,25.43
2023-04-08T22:40:24.006Z,25.47
2023-04-08T22:42:24.094Z,25.46
2023-04-08T22:44:24.037Z,25.43
2023-04-08T22:46:24.023Z,25.46
2023-04-08T22:48:23.992Z,25.47
2023-04-08T22:50:24.078Z,25.51
2023-04-08T22:52:24.079Z,25.51
2023-04-08T22:54:24.051Z,25.49
2023-04-08T22:56:24.089Z,25.50
2023-04-08T22:58:24.011Z,25.53
2023-04-08T23:00:23.988Z,25.49
2023-04-08T23:02:24.180Z,25.50
2023-04-08T23:04:24.157Z,25.51
2023-04-08T23:06:24.107Z,25.44
2023-04-08T23:08:24.038Z,25.51
2023-04-08T23:10:24.092Z,25.47
2023-04-08T23:12:24.095Z,25.54
2023-04-08T23:14:24.083Z,25.47
2023-04-08T23:16:24.170Z,25.49
2023-04-08T23:18:24.104Z,25.49
2023-04-08T23:20:24.028Z,25.50
2023-04-08T23:22:24.023Z,25.52
2023-04-08T23:24:24.044Z,25.53
2023-04-08T23:26:24.095Z,25.43
2023-04-08T23:28:24.110Z,25.45
2023-04-08T23:30:23.979Z,25.47
2023-04-08T23:32:24.082Z,25.52
2023-04-08T23:34:24.085Z,25.60
2023-04-08T23:36:24.120Z,25.51
2023-04-08T23:38:24.151Z,25.41
2023-04-08T23:40:24.092Z,25.45
2023-04-08T23:42:24.127Z,25.46
2023-04-08T23:44:24.043Z,25.47
2023-04-08T23:46:24.108Z,25.51
2023-04-08T23:48:24.062Z,25.47
2023-04-08T23:50:24.093Z,25.46
2023-04-08T23:52:24.163Z,25.42
2023-04-08T23:54:24.116Z,25.44
2023-04-08T23:56:24.084Z,25.47
2023-04-08T23:58:24.290Z,25.47
